sensor_id;sensor_type;location;lat;lon;timestamp;P1;durP1;ratioP1;P2;durP2;ratioP2
4182;SDS011;2105;52.300;9.182;2023-12-04T00:01:14;25.87;;;15.00;;
4182;SDS011;2105;52.300;9.182;2023-12-04T00:03:42;28.50;;;16.67;;
4182;SDS011;2105;52.300;9.182;2023-12-04T00:06:09;22.43;;;13.87;;
4182;SDS011;2105;52.300;9.182;2023-12-04T00:08:37;25.17;;;14.33;;
4182;SDS011;2105;52.300;9.182;2023-12-04T00:11:04;20.30;;;14.97;;
4182;SDS011;2105;52.300;9.182;2023-12-04T00:13:31;23.20;;;13.10;;
4182;SDS011;2105;52.300;9.182;2023-12-04T00:15:58;27.40;;;15.67;;
4182;SDS011;2105;52.300;9.182;2023-12-04T00:18:25;24.23;;;13.77;;
4182;SDS011;2105;52.300;9.182;2023-12-04T00:20:53;30.73;;;15.13;;
4182;SDS011;2105;52.300;9.182;2023-12-04T00:23:19;21.43;;;13.50;;
4182;SDS011;2105;52.300;9.182;2023-12-04T00:25:46;25.57;;;15.80;;
4182;SDS011;2105;52.300;9.182;2023-12-04T00:28:13;16.03;;;11.60;;
4182;SDS011;2105;52.300;9.182;2023-12-04T00:30:39;25.87;;;13.50;;
4182;SDS011;2105;52.300;9.182;2023-12-04T00:33:05;23.10;;;14.70;;
4182;SDS011;2105;52.300;9.182;2023-12-04T00:35:31;23.83;;;15.17;;
4182;SDS011;2105;52.300;9.182;2023-12-04T00:37:59;22.60;;;13.33;;
4182;SDS011;2105;52.300;9.182;2023-12-04T00:40:26;21.53;;;13.43;;
4182;SDS011;2105;52.300;9.182;2023-12-04T00:42:53;17.53;;;13.23;;
4182;SDS011;2105;52.300;9.182;2023-12-04T00:45:19;21.73;;;13.00;;
4182;SDS011;2105;52.300;9.182;2023-12-04T00:47:46;21.60;;;13.60;;
4182;SDS011;2105;52.300;9.182;2023-12-04T00:50:13;23.03;;;13.90;;
4182;SDS011;2105;52.300;9.182;2023-12-04T00:52:40;22.53;;;13.93;;
4182;SDS011;2105;52.300;9.182;2023-12-04T00:55:08;17.70;;;12.70;;
4182;SDS011;2105;52.300;9.182;2023-12-04T00:57:35;22.40;;;13.30;;
4182;SDS011;2105;52.300;9.182;2023-12-04T01:00:02;22.30;;;13.00;;
4182;SDS011;2105;52.300;9.182;2023-12-04T01:02:29;18.67;;;11.73;;
4182;SDS011;2105;52.300;9.182;2023-12-04T01:04:56;21.87;;;12.53;;
4182;SDS011;2105;52.300;9.182;2023-12-04T01:07:22;16.63;;;10.93;;
4182;SDS011;2105;52.300;9.182;2023-12-04T01:09:49;24.37;;;12.53;;
4182;SDS011;2105;52.300;9.182;2023-12-04T01:12:17;29.67;;;12.70;;
4182;SDS011;2105;52.300;9.182;2023-12-04T01:14:43;16.50;;;11.17;;
4182;SDS011;2105;52.300;9.182;2023-12-04T01:20:11;28.50;;;12.13;;
4182;SDS011;2105;52.300;9.182;2023-12-04T01:22:38;20.80;;;11.57;;
4182;SDS011;2105;52.300;9.182;2023-12-04T01:25:05;20.90;;;12.23;;
4182;SDS011;2105;52.300;9.182;2023-12-04T01:27:33;19.10;;;10.60;;
4182;SDS011;2105;52.300;9.182;2023-12-04T01:30:02;25.20;;;12.77;;
4182;SDS011;2105;52.300;9.182;2023-12-04T01:32:30;23.83;;;12.97;;
4182;SDS011;2105;52.300;9.182;2023-12-04T01:34:56;24.53;;;13.90;;
4182;SDS011;2105;52.300;9.182;2023-12-04T01:37:23;17.70;;;10.33;;
4182;SDS011;2105;52.300;9.182;2023-12-04T01:39:49;18.10;;;11.13;;
4182;SDS011;2105;52.300;9.182;2023-12-04T01:42:16;17.80;;;9.63;;
4182;SDS011;2105;52.300;9.182;2023-12-04T01:44:44;13.87;;;9.10;;
4182;SDS011;2105;52.300;9.182;2023-12-04T01:47:11;16.37;;;9.83;;
4182;SDS011;2105;52.300;9.182;2023-12-04T01:49:38;16.10;;;9.53;;
4182;SDS011;2105;52.300;9.182;2023-12-04T01:52:05;19.40;;;10.20;;
4182;SDS011;2105;52.300;9.182;2023-12-04T01:54:32;15.03;;;8.90;;
4182;SDS011;2105;52.300;9.182;2023-12-04T01:56:59;19.37;;;11.07;;
4182;SDS011;2105;52.300;9.182;2023-12-04T01:59:27;20.23;;;11.00;;
4182;SDS011;2105;52.300;9.182;2023-12-04T02:01:55;19.60;;;10.27;;
4182;SDS011;2105;52.300;9.182;2023-12-04T02:04:21;16.63;;;10.47;;
4182;SDS011;2105;52.300;9.182;2023-12-04T02:06:48;17.90;;;11.07;;
4182;SDS011;2105;52.300;9.182;2023-12-04T02:09:15;17.27;;;11.77;;
4182;SDS011;2105;52.300;9.182;2023-12-04T02:11:41;18.47;;;11.37;;
4182;SDS011;2105;52.300;9.182;2023-12-04T02:14:08;19.30;;;11.30;;
4182;SDS011;2105;52.300;9.182;2023-12-04T02:16:36;19.20;;;10.60;;
4182;SDS011;2105;52.300;9.182;2023-12-04T02:19:08;19.57;;;9.67;;
4182;SDS011;2105;52.300;9.182;2023-12-04T02:21:38;18.23;;;10.53;;
4182;SDS011;2105;52.300;9.182;2023-12-04T02:24:06;15.57;;;9.30;;
4182;SDS011;2105;52.300;9.182;2023-12-04T02:26:34;18.50;;;10.70;;
4182;SDS011;2105;52.300;9.182;2023-12-04T02:29:07;17.40;;;9.73;;
4182;SDS011;2105;52.300;9.182;2023-12-04T02:31:37;18.77;;;10.90;;
4182;SDS011;2105;52.300;9.182;2023-12-04T02:34:06;15.40;;;10.40;;
4182;SDS011;2105;52.300;9.182;2023-12-04T02:36:34;13.23;;;8.20;;
4182;SDS011;2105;52.300;9.182;2023-12-04T02:39:02;23.80;;;10.90;;
4182;SDS011;2105;52.300;9.182;2023-12-04T02:41:30;11.00;;;7.43;;
4182;SDS011;2105;52.300;9.182;2023-12-04T02:43:57;17.03;;;10.17;;
4182;SDS011;2105;52.300;9.182;2023-12-04T02:46:24;13.63;;;8.70;;
4182;SDS011;2105;52.300;9.182;2023-12-04T02:48:50;13.60;;;9.00;;
4182;SDS011;2105;52.300;9.182;2023-12-04T02:51:17;16.30;;;9.50;;
4182;SDS011;2105;52.300;9.182;2023-12-04T02:53:43;13.57;;;8.93;;
4182;SDS011;2105;52.300;9.182;2023-12-04T02:56:10;18.80;;;10.73;;
4182;SDS011;2105;52.300;9.182;2023-12-04T02:58:38;12.17;;;8.27;;
4182;SDS011;2105;52.300;9.182;2023-12-04T03:01:05;12.07;;;8.10;;
4182;SDS011;2105;52.300;9.182;2023-12-04T03:03:32;15.87;;;9.93;;
4182;SDS011;2105;52.300;9.182;2023-12-04T03:05:59;13.17;;;8.23;;
4182;SDS011;2105;52.300;9.182;2023-12-04T03:08:25;17.00;;;10.03;;
4182;SDS011;2105;52.300;9.182;2023-12-04T03:10:52;15.03;;;9.80;;
4182;SDS011;2105;52.300;9.182;2023-12-04T03:13:19;13.43;;;9.40;;
4182;SDS011;2105;52.300;9.182;2023-12-04T03:15:47;16.67;;;8.73;;
4182;SDS011;2105;52.300;9.182;2023-12-04T03:18:13;15.10;;;9.53;;
4182;SDS011;2105;52.300;9.182;2023-12-04T03:20:40;13.93;;;8.87;;
4182;SDS011;2105;52.300;9.182;2023-12-04T03:23:06;25.30;;;11.37;;
4182;SDS011;2105;52.300;9.182;2023-12-04T03:25:33;14.37;;;9.27;;
4182;SDS011;2105;52.300;9.182;2023-12-04T03:28:00;16.00;;;10.77;;
4182;SDS011;2105;52.300;9.182;2023-12-04T03:30:26;15.67;;;9.40;;
4182;SDS011;2105;52.300;9.182;2023-12-04T03:32:54;11.83;;;8.40;;
4182;SDS011;2105;52.300;9.182;2023-12-04T03:35:21;15.23;;;10.17;;
4182;SDS011;2105;52.300;9.182;2023-12-04T03:37:48;14.97;;;9.70;;
4182;SDS011;2105;52.300;9.182;2023-12-04T03:40:15;14.60;;;9.57;;
4182;SDS011;2105;52.300;9.182;2023-12-04T03:42:42;15.00;;;9.97;;
4182;SDS011;2105;52.300;9.182;2023-12-04T03:45:09;17.73;;;10.63;;
4182;SDS011;2105;52.300;9.182;2023-12-04T03:47:36;16.40;;;10.70;;
4182;SDS011;2105;52.300;9.182;2023-12-04T03:50:05;16.80;;;9.97;;
4182;SDS011;2105;52.300;9.182;2023-12-04T03:52:32;15.60;;;10.90;;
4182;SDS011;2105;52.300;9.182;2023-12-04T03:54:58;12.57;;;11.10;;
4182;SDS011;2105;52.300;9.182;2023-12-04T03:57:25;12.20;;;10.63;;
4182;SDS011;2105;52.300;9.182;2023-12-04T03:59:51;14.17;;;11.00;;
4182;SDS011;2105;52.300;9.182;2023-12-04T04:02:18;13.57;;;11.10;;
4182;SDS011;2105;52.300;9.182;2023-12-04T04:04:45;16.73;;;11.13;;
4182;SDS011;2105;52.300;9.182;2023-12-04T04:07:15;13.27;;;9.97;;
4182;SDS011;2105;52.300;9.182;2023-12-04T04:09:42;15.63;;;11.83;;
4182;SDS011;2105;52.300;9.182;2023-12-04T04:14:37;15.10;;;11.23;;
4182;SDS011;2105;52.300;9.182;2023-12-04T04:17:04;16.40;;;12.07;;
4182;SDS011;2105;52.300;9.182;2023-12-04T04:19:31;15.33;;;12.73;;
4182;SDS011;2105;52.300;9.182;2023-12-04T04:21:58;16.63;;;13.20;;
4182;SDS011;2105;52.300;9.182;2023-12-04T04:24:26;19.80;;;12.20;;
4182;SDS011;2105;52.300;9.182;2023-12-04T04:26:52;15.97;;;14.00;;
4182;SDS011;2105;52.300;9.182;2023-12-04T04:29:18;17.70;;;13.83;;
4182;SDS011;2105;52.300;9.182;2023-12-04T04:31:45;17.30;;;14.27;;
4182;SDS011;2105;52.300;9.182;2023-12-04T04:34:11;21.03;;;15.43;;
4182;SDS011;2105;52.300;9.182;2023-12-04T04:36:38;13.60;;;12.20;;
4182;SDS011;2105;52.300;9.182;2023-12-04T04:39:05;14.67;;;13.23;;
4182;SDS011;2105;52.300;9.182;2023-12-04T04:41:33;16.47;;;13.77;;
4182;SDS011;2105;52.300;9.182;2023-12-04T04:43:59;17.63;;;14.37;;
4182;SDS011;2105;52.300;9.182;2023-12-04T04:46:26;14.97;;;13.10;;
4182;SDS011;2105;52.300;9.182;2023-12-04T04:48:53;15.93;;;13.67;;
4182;SDS011;2105;52.300;9.182;2023-12-04T04:51:20;17.27;;;14.07;;
4182;SDS011;2105;52.300;9.182;2023-12-04T04:53:47;17.20;;;15.43;;
4182;SDS011;2105;52.300;9.182;2023-12-04T04:56:14;18.30;;;16.30;;
4182;SDS011;2105;52.300;9.182;2023-12-04T04:58:42;17.43;;;14.33;;
4182;SDS011;2105;52.300;9.182;2023-12-04T05:01:09;18.70;;;15.70;;
4182;SDS011;2105;52.300;9.182;2023-12-04T05:03:35;18.63;;;15.23;;
4182;SDS011;2105;52.300;9.182;2023-12-04T05:06:02;16.10;;;14.70;;
4182;SDS011;2105;52.300;9.182;2023-12-04T05:08:29;18.10;;;16.30;;
4182;SDS011;2105;52.300;9.182;2023-12-04T05:10:56;18.80;;;17.00;;
4182;SDS011;2105;52.300;9.182;2023-12-04T05:13:23;19.17;;;17.00;;
4182;SDS011;2105;52.300;9.182;2023-12-04T05:15:51;20.00;;;17.00;;
4182;SDS011;2105;52.300;9.182;2023-12-04T05:18:17;17.60;;;15.83;;
4182;SDS011;2105;52.300;9.182;2023-12-04T05:20:44;18.37;;;16.50;;
4182;SDS011;2105;52.300;9.182;2023-12-04T05:23:10;17.13;;;15.53;;
4182;SDS011;2105;52.300;9.182;2023-12-04T05:25:37;18.67;;;16.77;;
4182;SDS011;2105;52.300;9.182;2023-12-04T05:28:04;17.63;;;15.93;;
4182;SDS011;2105;52.300;9.182;2023-12-04T05:30:30;18.83;;;16.77;;
4182;SDS011;2105;52.300;9.182;2023-12-04T05:32:58;16.73;;;15.03;;
4182;SDS011;2105;52.300;9.182;2023-12-04T05:35:25;18.93;;;15.93;;
4182;SDS011;2105;52.300;9.182;2023-12-04T05:37:52;18.23;;;16.33;;
4182;SDS011;2105;52.300;9.182;2023-12-04T05:40:18;19.30;;;17.23;;
4182;SDS011;2105;52.300;9.182;2023-12-04T05:42:45;19.97;;;17.97;;
4182;SDS011;2105;52.300;9.182;2023-12-04T05:45:11;19.97;;;16.83;;
4182;SDS011;2105;52.300;9.182;2023-12-04T05:47:38;20.20;;;17.67;;
4182;SDS011;2105;52.300;9.182;2023-12-04T05:50:07;20.67;;;18.47;;
4182;SDS011;2105;52.300;9.182;2023-12-04T05:52:34;18.87;;;16.97;;
4182;SDS011;2105;52.300;9.182;2023-12-04T05:55:00;19.90;;;17.80;;
4182;SDS011;2105;52.300;9.182;2023-12-04T05:57:27;17.30;;;15.43;;
4182;SDS011;2105;52.300;9.182;2023-12-04T05:59:54;19.63;;;17.40;;
4182;SDS011;2105;52.300;9.182;2023-12-04T06:02:20;21.20;;;18.90;;
4182;SDS011;2105;52.300;9.182;2023-12-04T06:04:47;22.10;;;17.30;;
4182;SDS011;2105;52.300;9.182;2023-12-04T06:07:15;18.70;;;16.70;;
4182;SDS011;2105;52.300;9.182;2023-12-04T06:09:41;19.20;;;17.23;;
4182;SDS011;2105;52.300;9.182;2023-12-04T06:12:08;21.00;;;17.70;;
4182;SDS011;2105;52.300;9.182;2023-12-04T06:14:35;18.73;;;16.83;;
4182;SDS011;2105;52.300;9.182;2023-12-04T06:17:02;20.17;;;17.27;;
4182;SDS011;2105;52.300;9.182;2023-12-04T06:19:28;18.33;;;16.43;;
4182;SDS011;2105;52.300;9.182;2023-12-04T06:21:55;20.03;;;17.90;;
4182;SDS011;2105;52.300;9.182;2023-12-04T06:24:23;22.17;;;18.83;;
4182;SDS011;2105;52.300;9.182;2023-12-04T06:26:51;19.70;;;17.60;;
4182;SDS011;2105;52.300;9.182;2023-12-04T06:29:18;18.43;;;16.27;;
4182;SDS011;2105;52.300;9.182;2023-12-04T06:31:45;20.23;;;18.00;;
4182;SDS011;2105;52.300;9.182;2023-12-04T06:34:12;23.37;;;17.17;;
4182;SDS011;2105;52.300;9.182;2023-12-04T06:36:39;19.73;;;17.67;;
4182;SDS011;2105;52.300;9.182;2023-12-04T06:39:06;17.53;;;15.80;;
4182;SDS011;2105;52.300;9.182;2023-12-04T06:41:38;19.73;;;17.70;;
4182;SDS011;2105;52.300;9.182;2023-12-04T06:44:05;20.57;;;17.57;;
4182;SDS011;2105;52.300;9.182;2023-12-04T06:46:34;19.30;;;17.30;;
4182;SDS011;2105;52.300;9.182;2023-12-04T06:49:04;23.37;;;16.77;;
4182;SDS011;2105;52.300;9.182;2023-12-04T06:51:31;18.53;;;16.63;;
4182;SDS011;2105;52.300;9.182;2023-12-04T06:53:58;17.97;;;16.17;;
4182;SDS011;2105;52.300;9.182;2023-12-04T06:56:24;19.47;;;17.37;;
4182;SDS011;2105;52.300;9.182;2023-12-04T06:58:52;18.60;;;16.73;;
4182;SDS011;2105;52.300;9.182;2023-12-04T07:01:19;18.07;;;16.33;;
4182;SDS011;2105;52.300;9.182;2023-12-04T07:03:46;19.00;;;16.90;;
4182;SDS011;2105;52.300;9.182;2023-12-04T07:06:13;24.93;;;16.33;;
4182;SDS011;2105;52.300;9.182;2023-12-04T07:08:40;18.37;;;15.90;;
4182;SDS011;2105;52.300;9.182;2023-12-04T07:11:07;17.60;;;15.80;;
4182;SDS011;2105;52.300;9.182;2023-12-04T07:13:33;18.57;;;16.73;;
4182;SDS011;2105;52.300;9.182;2023-12-04T07:16:01;20.07;;;18.00;;
4182;SDS011;2105;52.300;9.182;2023-12-04T07:18:28;17.47;;;15.70;;
4182;SDS011;2105;52.300;9.182;2023-12-04T07:20:55;18.30;;;16.37;;
4182;SDS011;2105;52.300;9.182;2023-12-04T07:23:21;17.53;;;15.83;;
4182;SDS011;2105;52.300;9.182;2023-12-04T07:25:48;18.27;;;16.53;;
4182;SDS011;2105;52.300;9.182;2023-12-04T07:28:16;16.97;;;15.57;;
4182;SDS011;2105;52.300;9.182;2023-12-04T07:30:43;17.10;;;15.50;;
4182;SDS011;2105;52.300;9.182;2023-12-04T07:33:11;18.60;;;16.70;;
4182;SDS011;2105;52.300;9.182;2023-12-04T07:35:38;18.70;;;16.90;;
4182;SDS011;2105;52.300;9.182;2023-12-04T07:38:04;17.30;;;15.50;;
4182;SDS011;2105;52.300;9.182;2023-12-04T07:40:31;17.27;;;15.50;;
4182;SDS011;2105;52.300;9.182;2023-12-04T07:42:58;18.47;;;16.53;;
4182;SDS011;2105;52.300;9.182;2023-12-04T07:45:24;17.80;;;16.07;;
4182;SDS011;2105;52.300;9.182;2023-12-04T07:47:52;18.63;;;16.80;;
4182;SDS011;2105;52.300;9.182;2023-12-04T07:50:20;18.73;;;16.93;;
4182;SDS011;2105;52.300;9.182;2023-12-04T07:52:46;19.80;;;17.80;;
4182;SDS011;2105;52.300;9.182;2023-12-04T07:55:14;18.80;;;17.00;;
4182;SDS011;2105;52.300;9.182;2023-12-04T07:57:40;18.70;;;16.70;;
4182;SDS011;2105;52.300;9.182;2023-12-04T08:00:07;18.13;;;16.47;;
4182;SDS011;2105;52.300;9.182;2023-12-04T08:02:34;19.60;;;16.80;;
4182;SDS011;2105;52.300;9.182;2023-12-04T08:05:01;18.77;;;16.83;;
4182;SDS011;2105;52.300;9.182;2023-12-04T08:07:29;18.83;;;17.03;;
4182;SDS011;2105;52.300;9.182;2023-12-04T08:10:08;18.73;;;16.83;;
4182;SDS011;2105;52.300;9.182;2023-12-04T08:12:35;17.90;;;16.20;;
4182;SDS011;2105;52.300;9.182;2023-12-04T08:15:02;21.67;;;17.00;;
4182;SDS011;2105;52.300;9.182;2023-12-04T08:17:29;18.70;;;17.00;;
4182;SDS011;2105;52.300;9.182;2023-12-04T08:19:56;18.60;;;16.70;;
4182;SDS011;2105;52.300;9.182;2023-12-04T08:22:23;18.50;;;16.60;;
4182;SDS011;2105;52.300;9.182;2023-12-04T08:24:51;18.47;;;16.70;;
4182;SDS011;2105;52.300;9.182;2023-12-04T08:27:18;19.00;;;17.10;;
4182;SDS011;2105;52.300;9.182;2023-12-04T08:29:45;19.63;;;17.17;;
4182;SDS011;2105;52.300;9.182;2023-12-04T08:32:11;20.33;;;17.40;;
4182;SDS011;2105;52.300;9.182;2023-12-04T08:34:38;18.80;;;17.00;;
4182;SDS011;2105;52.300;9.182;2023-12-04T08:37:05;20.00;;;17.90;;
4182;SDS011;2105;52.300;9.182;2023-12-04T08:39:31;18.80;;;17.00;;
4182;SDS011;2105;52.300;9.182;2023-12-04T08:41:59;18.87;;;17.07;;
4182;SDS011;2105;52.300;9.182;2023-12-04T08:44:26;19.20;;;17.17;;
4182;SDS011;2105;52.300;9.182;2023-12-04T08:46:52;21.03;;;18.87;;
4182;SDS011;2105;52.300;9.182;2023-12-04T08:49:19;19.07;;;17.17;;
4182;SDS011;2105;52.300;9.182;2023-12-04T08:51:46;17.30;;;15.60;;
4182;SDS011;2105;52.300;9.182;2023-12-04T08:54:12;20.23;;;16.30;;
4182;SDS011;2105;52.300;9.182;2023-12-04T08:56:39;18.53;;;16.83;;
4182;SDS011;2105;52.300;9.182;2023-12-04T08:59:07;18.10;;;15.90;;
4182;SDS011;2105;52.300;9.182;2023-12-04T09:01:34;17.17;;;15.67;;
4182;SDS011;2105;52.300;9.182;2023-12-04T09:04:01;19.63;;;17.60;;
4182;SDS011;2105;52.300;9.182;2023-12-04T09:06:28;19.10;;;17.10;;
4182;SDS011;2105;52.300;9.182;2023-12-04T09:08:55;17.43;;;15.80;;
4182;SDS011;2105;52.300;9.182;2023-12-04T09:11:22;17.67;;;16.07;;
4182;SDS011;2105;52.300;9.182;2023-12-04T09:13:48;20.93;;;16.07;;
4182;SDS011;2105;52.300;9.182;2023-12-04T09:16:16;17.80;;;16.00;;
4182;SDS011;2105;52.300;9.182;2023-12-04T09:18:43;15.80;;;14.50;;
4182;SDS011;2105;52.300;9.182;2023-12-04T09:21:10;18.10;;;16.30;;
4182;SDS011;2105;52.300;9.182;2023-12-04T09:23:36;18.40;;;16.50;;
4182;SDS011;2105;52.300;9.182;2023-12-04T09:26:03;19.40;;;17.50;;
4182;SDS011;2105;52.300;9.182;2023-12-04T09:28:30;17.70;;;16.00;;
4182;SDS011;2105;52.300;9.182;2023-12-04T09:30:57;16.73;;;15.27;;
4182;SDS011;2105;52.300;9.182;2023-12-04T09:33:25;18.10;;;16.47;;
4182;SDS011;2105;52.300;9.182;2023-12-04T09:35:51;18.67;;;15.70;;
4182;SDS011;2105;52.300;9.182;2023-12-04T09:38:18;17.00;;;15.40;;
4182;SDS011;2105;52.300;9.182;2023-12-04T09:40:45;17.03;;;15.40;;
4182;SDS011;2105;52.300;9.182;2023-12-04T09:43:11;16.57;;;14.93;;
4182;SDS011;2105;52.300;9.182;2023-12-04T09:45:38;18.57;;;16.67;;
4182;SDS011;2105;52.300;9.182;2023-12-04T09:48:06;17.20;;;15.40;;
4182;SDS011;2105;52.300;9.182;2023-12-04T09:50:35;18.47;;;16.50;;
4182;SDS011;2105;52.300;9.182;2023-12-04T09:53:04;18.47;;;16.57;;
4182;SDS011;2105;52.300;9.182;2023-12-04T09:55:32;18.40;;;16.50;;
4182;SDS011;2105;52.300;9.182;2023-12-04T09:57:59;17.20;;;15.60;;
4182;SDS011;2105;52.300;9.182;2023-12-04T10:00:25;18.13;;;16.23;;
4182;SDS011;2105;52.300;9.182;2023-12-04T10:02:53;17.57;;;15.77;;
4182;SDS011;2105;52.300;9.182;2023-12-04T10:05:21;18.77;;;16.80;;
4182;SDS011;2105;52.300;9.182;2023-12-04T10:07:50;20.33;;;17.40;;
4182;SDS011;2105;52.300;9.182;2023-12-04T10:12:44;17.20;;;15.40;;
4182;SDS011;2105;52.300;9.182;2023-12-04T10:15:11;17.73;;;15.93;;
4182;SDS011;2105;52.300;9.182;2023-12-04T10:17:39;20.13;;;17.10;;
4182;SDS011;2105;52.300;9.182;2023-12-04T10:20:09;17.50;;;15.73;;
4182;SDS011;2105;52.300;9.182;2023-12-04T10:22:38;17.60;;;15.73;;
4182;SDS011;2105;52.300;9.182;2023-12-04T10:25:16;17.27;;;15.47;;
4182;SDS011;2105;52.300;9.182;2023-12-04T10:27:44;17.70;;;15.90;;
4182;SDS011;2105;52.300;9.182;2023-12-04T10:30:21;15.27;;;13.97;;
4182;SDS011;2105;52.300;9.182;2023-12-04T10:32:49;18.60;;;16.60;;
4182;SDS011;2105;52.300;9.182;2023-12-04T10:35:19;17.90;;;16.10;;
4182;SDS011;2105;52.300;9.182;2023-12-04T10:37:46;18.60;;;16.60;;
4182;SDS011;2105;52.300;9.182;2023-12-04T10:40:12;16.57;;;14.93;;
4182;SDS011;2105;52.300;9.182;2023-12-04T10:42:50;16.83;;;15.23;;
4182;SDS011;2105;52.300;9.182;2023-12-04T10:45:17;17.63;;;15.90;;
4182;SDS011;2105;52.300;9.182;2023-12-04T10:47:47;18.53;;;16.63;;
4182;SDS011;2105;52.300;9.182;2023-12-04T10:50:16;18.27;;;16.47;;
4182;SDS011;2105;52.300;9.182;2023-12-04T10:52:43;17.50;;;15.90;;
4182;SDS011;2105;52.300;9.182;2023-12-04T10:55:11;15.80;;;14.50;;
4182;SDS011;2105;52.300;9.182;2023-12-04T10:57:40;17.70;;;15.90;;
4182;SDS011;2105;52.300;9.182;2023-12-04T11:00:09;17.63;;;15.93;;
4182;SDS011;2105;52.300;9.182;2023-12-04T11:02:42;17.77;;;15.97;;
4182;SDS011;2105;52.300;9.182;2023-12-04T11:05:12;17.40;;;15.77;;
4182;SDS011;2105;52.300;9.182;2023-12-04T11:07:44;16.93;;;15.40;;
4182;SDS011;2105;52.300;9.182;2023-12-04T11:10:14;17.10;;;15.40;;
4182;SDS011;2105;52.300;9.182;2023-12-04T11:12:44;16.33;;;14.73;;
4182;SDS011;2105;52.300;9.182;2023-12-04T11:15:11;17.20;;;15.63;;
4182;SDS011;2105;52.300;9.182;2023-12-04T11:17:41;17.47;;;15.57;;
4182;SDS011;2105;52.300;9.182;2023-12-04T11:20:15;16.23;;;14.73;;
4182;SDS011;2105;52.300;9.182;2023-12-04T11:22:45;16.50;;;15.00;;
4182;SDS011;2105;52.300;9.182;2023-12-04T11:25:13;17.03;;;15.40;;
4182;SDS011;2105;52.300;9.182;2023-12-04T11:27:40;17.67;;;15.87;;
4182;SDS011;2105;52.300;9.182;2023-12-04T11:30:10;17.37;;;15.73;;
4182;SDS011;2105;52.300;9.182;2023-12-04T11:32:43;17.40;;;15.63;;
4182;SDS011;2105;52.300;9.182;2023-12-04T11:35:12;16.83;;;15.20;;
4182;SDS011;2105;52.300;9.182;2023-12-04T11:37:42;17.20;;;15.43;;
4182;SDS011;2105;52.300;9.182;2023-12-04T11:40:11;17.90;;;16.03;;
4182;SDS011;2105;52.300;9.182;2023-12-04T11:42:38;18.00;;;15.53;;
4182;SDS011;2105;52.300;9.182;2023-12-04T11:45:05;16.53;;;14.93;;
4182;SDS011;2105;52.300;9.182;2023-12-04T11:50:16;17.97;;;16.20;;
4182;SDS011;2105;52.300;9.182;2023-12-04T11:52:44;16.73;;;15.10;;
4182;SDS011;2105;52.300;9.182;2023-12-04T11:55:12;16.33;;;14.80;;
4182;SDS011;2105;52.300;9.182;2023-12-04T11:57:41;15.13;;;13.80;;
4182;SDS011;2105;52.300;9.182;2023-12-04T12:00:09;16.57;;;15.00;;
4182;SDS011;2105;52.300;9.182;2023-12-04T12:02:39;16.03;;;14.53;;
4182;SDS011;2105;52.300;9.182;2023-12-04T12:05:08;16.90;;;15.17;;
4182;SDS011;2105;52.300;9.182;2023-12-04T12:07:35;18.20;;;15.37;;
4182;SDS011;2105;52.300;9.182;2023-12-04T12:10:02;18.50;;;16.20;;
4182;SDS011;2105;52.300;9.182;2023-12-04T12:12:29;16.40;;;14.83;;
4182;SDS011;2105;52.300;9.182;2023-12-04T12:14:57;17.83;;;15.47;;
4182;SDS011;2105;52.300;9.182;2023-12-04T12:17:24;17.60;;;16.00;;
4182;SDS011;2105;52.300;9.182;2023-12-04T12:19:51;17.10;;;15.33;;
4182;SDS011;2105;52.300;9.182;2023-12-04T12:22:19;17.83;;;15.83;;
4182;SDS011;2105;52.300;9.182;2023-12-04T12:24:45;16.73;;;15.03;;
4182;SDS011;2105;52.300;9.182;2023-12-04T12:27:12;17.73;;;15.30;;
4182;SDS011;2105;52.300;9.182;2023-12-04T12:29:39;17.30;;;15.70;;
4182;SDS011;2105;52.300;9.182;2023-12-04T12:32:05;17.73;;;15.83;;
4182;SDS011;2105;52.300;9.182;2023-12-04T12:34:32;19.67;;;17.70;;
4182;SDS011;2105;52.300;9.182;2023-12-04T12:37:00;16.93;;;15.33;;
4182;SDS011;2105;52.300;9.182;2023-12-04T12:39:29;16.43;;;14.93;;
4182;SDS011;2105;52.300;9.182;2023-12-04T12:41:56;18.33;;;16.60;;
4182;SDS011;2105;52.300;9.182;2023-12-04T12:44:23;17.20;;;15.70;;
4182;SDS011;2105;52.300;9.182;2023-12-04T12:46:50;17.60;;;16.00;;
4182;SDS011;2105;52.300;9.182;2023-12-04T12:49:17;17.63;;;16.00;;
4182;SDS011;2105;52.300;9.182;2023-12-04T12:51:45;19.87;;;16.77;;
4182;SDS011;2105;52.300;9.182;2023-12-04T12:54:12;17.20;;;15.70;;
4182;SDS011;2105;52.300;9.182;2023-12-04T12:56:41;16.97;;;15.50;;
4182;SDS011;2105;52.300;9.182;2023-12-04T12:59:07;18.80;;;16.23;;
4182;SDS011;2105;52.300;9.182;2023-12-04T13:01:34;17.40;;;15.80;;
4182;SDS011;2105;52.300;9.182;2023-12-04T13:04:01;17.57;;;16.07;;
4182;SDS011;2105;52.300;9.182;2023-12-04T13:06:28;21.97;;;16.80;;
4182;SDS011;2105;52.300;9.182;2023-12-04T13:08:55;18.60;;;16.80;;
4182;SDS011;2105;52.300;9.182;2023-12-04T13:11:22;18.80;;;17.00;;
4182;SDS011;2105;52.300;9.182;2023-12-04T13:13:50;18.33;;;16.73;;
4182;SDS011;2105;52.300;9.182;2023-12-04T13:16:16;18.53;;;16.93;;
4182;SDS011;2105;52.300;9.182;2023-12-04T13:18:43;17.80;;;16.07;;
4182;SDS011;2105;52.300;9.182;2023-12-04T13:21:09;18.60;;;16.90;;
4182;SDS011;2105;52.300;9.182;2023-12-04T13:23:36;18.37;;;16.87;;
4182;SDS011;2105;52.300;9.182;2023-12-04T13:26:03;18.40;;;16.80;;
4182;SDS011;2105;52.300;9.182;2023-12-04T13:28:30;18.50;;;16.70;;
4182;SDS011;2105;52.300;9.182;2023-12-04T13:30:58;19.23;;;17.43;;
4182;SDS011;2105;52.300;9.182;2023-12-04T13:33:25;20.03;;;18.13;;
4182;SDS011;2105;52.300;9.182;2023-12-04T13:35:52;19.23;;;17.53;;
4182;SDS011;2105;52.300;9.182;2023-12-04T13:38:19;20.40;;;18.20;;
4182;SDS011;2105;52.300;9.182;2023-12-04T13:40:45;19.33;;;17.60;;
4182;SDS011;2105;52.300;9.182;2023-12-04T13:43:24;19.47;;;17.77;;
4182;SDS011;2105;52.300;9.182;2023-12-04T13:46:11;22.07;;;19.83;;
4182;SDS011;2105;52.300;9.182;2023-12-04T13:48:37;32.80;;;22.00;;
4182;SDS011;2105;52.300;9.182;2023-12-04T13:51:05;21.43;;;19.20;;
4182;SDS011;2105;52.300;9.182;2023-12-04T13:53:32;20.70;;;18.23;;
4182;SDS011;2105;52.300;9.182;2023-12-04T13:56:00;19.53;;;17.57;;
4182;SDS011;2105;52.300;9.182;2023-12-04T13:58:49;20.97;;;17.80;;
4182;SDS011;2105;52.300;9.182;2023-12-04T14:01:22;19.00;;;17.20;;
4182;SDS011;2105;52.300;9.182;2023-12-04T14:03:49;20.07;;;18.10;;
4182;SDS011;2105;52.300;9.182;2023-12-04T14:06:17;29.90;;;25.40;;
4182;SDS011;2105;52.300;9.182;2023-12-04T14:08:43;20.10;;;18.30;;
4182;SDS011;2105;52.300;9.182;2023-12-04T14:11:10;27.27;;;18.30;;
4182;SDS011;2105;52.300;9.182;2023-12-04T14:13:39;19.63;;;17.23;;
4182;SDS011;2105;52.300;9.182;2023-12-04T14:16:06;30.67;;;18.60;;
4182;SDS011;2105;52.300;9.182;2023-12-04T14:18:35;28.33;;;21.23;;
4182;SDS011;2105;52.300;9.182;2023-12-04T14:21:02;23.40;;;19.33;;
4182;SDS011;2105;52.300;9.182;2023-12-04T14:23:29;27.47;;;24.07;;
4182;SDS011;2105;52.300;9.182;2023-12-04T14:25:55;26.00;;;20.73;;
4182;SDS011;2105;52.300;9.182;2023-12-04T14:28:22;23.17;;;19.27;;
4182;SDS011;2105;52.300;9.182;2023-12-04T14:30:49;20.30;;;18.17;;
4182;SDS011;2105;52.300;9.182;2023-12-04T14:33:17;24.50;;;18.03;;
4182;SDS011;2105;52.300;9.182;2023-12-04T14:35:45;19.43;;;16.60;;
4182;SDS011;2105;52.300;9.182;2023-12-04T14:38:12;18.80;;;16.70;;
4182;SDS011;2105;52.300;9.182;2023-12-04T14:40:39;19.90;;;17.87;;
4182;SDS011;2105;52.300;9.182;2023-12-04T14:43:06;20.40;;;18.37;;
4182;SDS011;2105;52.300;9.182;2023-12-04T14:45:34;18.63;;;17.03;;
4182;SDS011;2105;52.300;9.182;2023-12-04T14:48:02;17.70;;;16.10;;
4182;SDS011;2105;52.300;9.182;2023-12-04T14:50:32;18.90;;;17.10;;
4182;SDS011;2105;52.300;9.182;2023-12-04T14:53:00;20.30;;;18.27;;
4182;SDS011;2105;52.300;9.182;2023-12-04T14:55:40;17.97;;;16.20;;
4182;SDS011;2105;52.300;9.182;2023-12-04T14:58:24;17.97;;;16.37;;
4182;SDS011;2105;52.300;9.182;2023-12-04T15:01:04;18.73;;;16.83;;